createdAt,value
2023-02-25T00:02:03.110Z,28.00
2023-02-25T00:04:32.889Z,25.00
2023-02-25T00:07:20.880Z,29.30
2023-02-25T00:09:53.414Z,26.20
2023-02-25T00:12:21.452Z,24.60
2023-02-25T00:14:49.552Z,23.90
2023-02-25T00:17:18.743Z,23.20
2023-02-25T00:19:47.134Z,23.80
2023-02-25T00:22:15.181Z,24.20
2023-02-25T00:24:43.287Z,24.20
2023-02-25T00:27:11.299Z,24.40
2023-02-25T00:29:40.376Z,25.20
2023-02-25T00:32:08.542Z,24.40
2023-02-25T00:35:28.914Z,24.60
2023-02-25T00:38:03.954Z,26.00
2023-02-25T00:40:40.565Z,23.30
2023-02-25T00:43:08.755Z,27.10
2023-02-25T00:45:39.649Z,27.50
2023-02-25T00:48:08.422Z,25.80
2023-02-25T00:50:39.764Z,26.10
2023-02-25T00:53:09.012Z,25.40
2023-02-25T00:55:37.031Z,24.00
2023-02-25T00:58:05.041Z,24.10
2023-02-25T01:00:46.425Z,23.30
2023-02-25T01:03:19.496Z,26.60
2023-02-25T01:05:50.586Z,30.80
2023-02-25T01:08:20.159Z,28.20
2023-02-25T01:10:48.225Z,24.70
2023-02-25T01:13:20.528Z,26.90
2023-02-25T01:15:48.680Z,28.00
2023-02-25T01:18:20.767Z,26.70
2023-02-25T01:20:51.558Z,26.40
2023-02-25T01:23:20.368Z,23.60
2023-02-25T01:25:50.813Z,25.00
2023-02-25T01:28:19.098Z,25.10
2023-02-25T01:30:47.770Z,29.00
2023-02-25T01:33:16.326Z,27.70
2023-02-25T01:35:45.493Z,25.70
2023-02-25T01:38:13.515Z,27.90
2023-02-25T01:40:41.691Z,26.00
2023-02-25T01:43:16.903Z,29.50
2023-02-25T01:45:45.102Z,29.40
2023-02-25T01:48:18.333Z,27.10
2023-02-25T01:50:55.350Z,28.50
2023-02-25T01:53:30.630Z,28.60
2023-02-25T01:55:58.956Z,27.70
2023-02-25T01:58:27.047Z,26.60
2023-02-25T02:00:56.530Z,26.30
2023-02-25T02:03:37.367Z,30.40
2023-02-25T02:06:12.993Z,29.80
2023-02-25T02:08:42.758Z,27.90
2023-02-25T02:11:11.615Z,27.60
2023-02-25T02:13:44.165Z,29.50
2023-02-25T02:16:37.183Z,28.00
2023-02-25T02:19:14.546Z,28.80
2023-02-25T02:22:00.715Z,26.70
2023-02-25T02:24:40.953Z,25.90
2023-02-25T02:27:14.959Z,31.40
2023-02-25T02:29:58.905Z,31.70
2023-02-25T02:32:55.699Z,30.70
2023-02-25T02:35:27.890Z,27.50
2023-02-25T02:38:26.804Z,29.30
2023-02-25T02:41:04.374Z,29.30
2023-02-25T02:43:41.667Z,30.60
2023-02-25T02:46:12.803Z,27.70
2023-02-25T02:48:49.115Z,27.60
2023-02-25T02:53:54.573Z,28.00
2023-02-25T02:56:25.112Z,27.30
2023-02-25T02:58:59.470Z,27.10
2023-02-25T03:01:32.852Z,30.50
2023-02-25T03:04:06.233Z,29.50
2023-02-25T03:06:40.896Z,28.30
2023-02-25T03:09:18.875Z,30.40
2023-02-25T03:11:47.067Z,29.40
2023-02-25T03:14:15.955Z,29.30
2023-02-25T03:16:59.919Z,28.20
2023-02-25T03:19:45.641Z,28.90
2023-02-25T03:22:15.994Z,26.50
2023-02-25T03:25:06.666Z,26.60
2023-02-25T03:27:39.504Z,29.00
2023-02-25T03:30:31.817Z,27.90
2023-02-25T03:33:16.533Z,27.00
2023-02-25T03:35:46.330Z,30.00
2023-02-25T03:38:18.351Z,30.30
2023-02-25T03:40:47.810Z,26.80
2023-02-25T03:43:28.073Z,29.30
2023-02-25T03:45:58.358Z,28.60
2023-02-25T03:48:27.072Z,29.20
2023-02-25T03:51:03.547Z,26.80
2023-02-25T03:53:48.237Z,27.30
2023-02-25T03:56:20.805Z,29.10
2023-02-25T03:58:49.271Z,28.10
2023-02-25T04:01:28.263Z,27.80
2023-02-25T04:03:56.427Z,30.50
2023-02-25T04:06:25.672Z,32.20
2023-02-25T04:08:54.733Z,27.80
2023-02-25T04:11:23.351Z,29.90
2023-02-25T04:13:51.515Z,28.70
2023-02-25T04:16:21.920Z,33.60
2023-02-25T04:18:55.468Z,33.10
2023-02-25T04:21:32.200Z,32.70
2023-02-25T04:24:00.426Z,34.00
2023-02-25T04:26:28.515Z,28.40
2023-02-25T04:28:57.324Z,30.50
2023-02-25T04:31:25.760Z,30.10
2023-02-25T04:33:53.922Z,32.40
2023-02-25T04:36:29.038Z,31.40
2023-02-25T04:38:57.899Z,28.30
2023-02-25T04:41:29.801Z,27.20
2023-02-25T04:44:04.050Z,27.90
2023-02-25T04:46:35.775Z,26.50
2023-02-25T04:49:04.067Z,28.90
2023-02-25T04:51:35.632Z,31.40
2023-02-25T04:54:04.178Z,26.40
2023-02-25T04:56:32.282Z,24.30
2023-02-25T04:59:00.580Z,28.70
2023-02-25T05:01:28.886Z,26.60
2023-02-25T05:03:57.569Z,30.40
2023-02-25T05:06:26.017Z,25.20
2023-02-25T05:08:58.999Z,26.60
2023-02-25T05:11:28.194Z,23.60
2023-02-25T05:13:57.455Z,27.40
2023-02-25T05:16:27.264Z,28.90
2023-02-25T05:18:55.452Z,25.10
2023-02-25T05:21:26.076Z,25.30
2023-02-25T05:23:54.550Z,24.00
2023-02-25T05:26:24.296Z,26.90
2023-02-25T05:28:54.246Z,26.70
2023-02-25T05:31:24.849Z,25.90
2023-02-25T05:33:53.178Z,22.70
2023-02-25T05:36:21.740Z,26.00
2023-02-25T05:38:55.359Z,26.40
2023-02-25T05:41:23.410Z,28.60
2023-02-25T05:43:51.549Z,22.70
2023-02-25T05:46:19.827Z,26.10
2023-02-25T05:48:49.077Z,28.30
2023-02-25T05:51:18.914Z,22.10
2023-02-25T05:53:48.190Z,31.50
2023-02-25T05:56:19.440Z,30.90
2023-02-25T05:58:48.781Z,23.70
2023-02-25T06:01:22.911Z,21.80
2023-02-25T06:03:52.644Z,23.60
2023-02-25T06:06:24.784Z,26.40
2023-02-25T06:08:53.231Z,19.70
2023-02-25T06:11:29.190Z,20.20
2023-02-25T06:13:58.376Z,26.20
2023-02-25T06:16:30.500Z,20.20
2023-02-25T06:19:02.501Z,24.10
2023-02-25T06:21:34.099Z,21.60
2023-02-25T06:24:05.301Z,24.40
2023-02-25T06:26:35.519Z,22.30
2023-02-25T06:29:04.036Z,23.90
2023-02-25T06:31:34.765Z,28.20
2023-02-25T06:34:03.433Z,28.90
2023-02-25T06:36:32.327Z,18.00
2023-02-25T06:39:00.414Z,16.00
2023-02-25T06:41:28.562Z,11.90
2023-02-25T06:43:56.951Z,10.10
2023-02-25T06:46:26.089Z,13.70
2023-02-25T06:48:54.732Z,7.90
2023-02-25T06:51:23.219Z,8.40
2023-02-25T06:53:53.133Z,7.70
2023-02-25T06:56:22.735Z,6.60
2023-02-25T06:58:53.175Z,5.20
2023-02-25T07:01:21.372Z,5.50
2023-02-25T07:03:49.925Z,5.80
2023-02-25T07:06:18.289Z,8.10
2023-02-25T07:08:46.713Z,4.70
2023-02-25T07:11:18.121Z,2.20
2023-02-25T07:13:49.549Z,2.70
2023-02-25T07:16:17.667Z,3.40
2023-02-25T07:18:51.140Z,4.70
2023-02-25T07:21:20.076Z,3.30
2023-02-25T07:23:48.095Z,3.90
2023-02-25T07:27:13.565Z,3.20
2023-02-25T07:29:41.673Z,3.10
2023-02-25T07:32:09.809Z,3.00
2023-02-25T07:34:39.216Z,2.40
2023-02-25T07:37:07.451Z,1.90
2023-02-25T07:39:35.990Z,5.60
2023-02-25T07:42:04.068Z,24.60
2023-02-25T07:44:34.004Z,11.90
2023-02-25T07:47:02.118Z,9.80
2023-02-25T07:49:30.247Z,11.30
2023-02-25T07:51:58.633Z,12.40
2023-02-25T07:54:26.732Z,27.10
2023-02-25T07:56:54.810Z,20.50
2023-02-25T07:59:23.407Z,16.40
2023-02-25T08:01:55.276Z,10.30
2023-02-25T08:04:24.667Z,8.40
2023-02-25T08:06:52.975Z,9.40
2023-02-25T08:09:21.624Z,7.80
2023-02-25T08:11:49.718Z,9.10
2023-02-25T08:14:17.786Z,10.00
2023-02-25T08:16:45.832Z,10.80
2023-02-25T08:19:13.823Z,10.10
2023-02-25T08:21:43.059Z,8.90
2023-02-25T08:24:13.488Z,6.10
2023-02-25T08:26:42.590Z,5.10
2023-02-25T08:29:10.618Z,8.50
2023-02-25T08:31:39.434Z,4.40
2023-02-25T08:34:07.744Z,5.20
2023-02-25T08:36:37.409Z,4.20
2023-02-25T08:39:05.968Z,3.30
2023-02-25T08:41:35.202Z,4.80
2023-02-25T08:44:03.188Z,2.90
2023-02-25T08:46:31.907Z,3.50
2023-02-25T08:49:01.022Z,3.20
2023-02-25T08:51:34.578Z,2.60
2023-02-25T08:54:05.596Z,2.60
2023-02-25T08:56:35.273Z,4.10
2023-02-25T08:59:04.022Z,17.80
2023-02-25T09:01:45.009Z,5.60
2023-02-25T09:04:16.027Z,3.80
2023-02-25T09:06:44.470Z,9.10
2023-02-25T09:09:13.480Z,10.00
2023-02-25T09:11:41.961Z,3.90
2023-02-25T09:14:10.627Z,5.80
2023-02-25T09:16:41.068Z,3.70
2023-02-25T09:19:10.963Z,2.80
2023-02-25T09:21:43.166Z,3.20
2023-02-25T09:24:11.785Z,4.50
2023-02-25T09:26:39.863Z,4.00
2023-02-25T09:29:08.768Z,3.40
2023-02-25T09:31:37.800Z,3.00
2023-02-25T09:34:08.122Z,2.30
2023-02-25T09:36:36.921Z,2.30
2023-02-25T09:39:10.591Z,3.00
2023-02-25T09:42:03.531Z,2.00
2023-02-25T09:44:34.279Z,3.50
2023-02-25T09:47:06.459Z,3.60
2023-02-25T09:50:01.439Z,6.00
2023-02-25T09:52:38.657Z,2.90
2023-02-25T09:55:23.589Z,4.00
2023-02-25T09:58:03.087Z,5.20
2023-02-25T10:00:32.046Z,5.30
2023-02-25T10:03:05.032Z,3.30
2023-02-25T10:05:44.492Z,5.60
2023-02-25T10:08:41.917Z,4.30
2023-02-25T10:13:44.905Z,3.90
2023-02-25T10:16:38.943Z,4.00
2023-02-25T10:19:13.430Z,4.40
2023-02-25T10:22:36.919Z,5.40
2023-02-25T10:25:14.785Z,5.30
2023-02-25T10:27:47.875Z,6.10
2023-02-25T10:30:22.960Z,6.10
2023-02-25T10:32:51.080Z,4.90
2023-02-25T10:35:25.755Z,6.00
2023-02-25T10:37:54.828Z,5.00
2023-02-25T10:40:24.581Z,5.20
2023-02-25T10:42:54.736Z,14.60
2023-02-25T10:45:28.271Z,6.10
2023-02-25T10:48:19.013Z,9.00
2023-02-25T10:51:06.536Z,12.40
2023-02-25T10:53:34.747Z,17.80
2023-02-25T10:56:07.066Z,11.70
2023-02-25T10:58:57.863Z,15.50
2023-02-25T11:01:29.430Z,13.80
2023-02-25T11:04:02.845Z,13.00
2023-02-25T11:06:36.005Z,17.10
2023-02-25T11:09:06.942Z,17.10
2023-02-25T11:11:38.684Z,7.80
2023-02-25T11:14:14.739Z,10.60
2023-02-25T11:16:44.126Z,41.30
2023-02-25T11:19:25.469Z,17.70
2023-02-25T11:21:53.749Z,16.80
2023-02-25T11:24:33.672Z,9.10
2023-02-25T11:27:02.459Z,12.40
2023-02-25T11:29:36.469Z,6.70
2023-02-25T11:32:12.228Z,5.00
2023-02-25T11:35:10.401Z,5.70
2023-02-25T11:37:43.182Z,7.50
2023-02-25T11:40:24.357Z,13.20
2023-02-25T11:43:05.009Z,7.50
2023-02-25T11:45:38.613Z,5.80
2023-02-25T11:48:19.865Z,23.50
2023-02-25T11:51:04.107Z,13.70
2023-02-25T11:53:44.984Z,5.90
2023-02-25T11:56:17.233Z,4.80
2023-02-25T11:59:01.991Z,6.00
2023-02-25T12:02:01.512Z,9.70
2023-02-25T12:04:57.665Z,20.00
2023-02-25T12:08:12.581Z,9.20
2023-02-25T12:11:06.384Z,8.70
2023-02-25T12:14:11.390Z,6.50
2023-02-25T12:16:59.401Z,9.20
2023-02-25T12:22:02.037Z,6.20
2023-02-25T12:24:38.409Z,6.80
2023-02-25T12:27:18.614Z,6.50
2023-02-25T12:30:17.032Z,6.00
2023-02-25T12:33:15.507Z,8.30
2023-02-25T12:36:03.686Z,12.30
2023-02-25T12:38:47.431Z,9.10
2023-02-25T12:44:37.830Z,45.20
2023-02-25T12:47:14.917Z,19.80
2023-02-25T12:50:09.269Z,34.20
2023-02-25T12:52:41.065Z,13.30
2023-02-25T12:55:26.121Z,10.40
2023-02-25T12:58:22.500Z,14.50
2023-02-25T13:01:06.072Z,31.70
2023-02-25T13:03:54.415Z,26.70
2023-02-25T13:06:23.227Z,10.60
2023-02-25T13:09:01.130Z,11.60
2023-02-25T13:12:10.543Z,7.30
2023-02-25T13:14:40.720Z,13.50
2023-02-25T13:17:19.938Z,15.40
2023-02-25T13:20:07.032Z,33.60
2023-02-25T13:22:44.680Z,15.20
2023-02-25T13:25:40.704Z,10.50
2023-02-25T13:28:11.675Z,11.90
2023-02-25T13:30:49.625Z,9.00
2023-02-25T13:33:18.310Z,20.60
2023-02-25T13:35:56.045Z,9.70
2023-02-25T13:38:33.438Z,10.80
2023-02-25T13:41:14.479Z,7.70
2023-02-25T13:44:07.943Z,9.40
2023-02-25T13:46:43.432Z,7.60
2023-02-25T13:49:43.934Z,6.60
2023-02-25T13:52:30.856Z,7.10
2023-02-25T13:57:54.239Z,6.80
2023-02-25T14:00:37.253Z,8.50
2023-02-25T14:03:24.238Z,6.50
2023-02-25T14:08:26.816Z,8.90
2023-02-25T14:11:17.031Z,11.10
2023-02-25T14:13:48.876Z,22.70
2023-02-25T14:16:20.046Z,51.60
2023-02-25T14:19:17.611Z,23.00
2023-02-25T14:22:12.143Z,8.60
2023-02-25T14:24:42.467Z,7.60
2023-02-25T14:27:29.375Z,8.60
2023-02-25T14:30:29.764Z,8.10
2023-02-25T14:33:04.689Z,5.00
2023-02-25T14:35:52.202Z,5.10
2023-02-25T14:38:46.810Z,8.10
2023-02-25T14:41:26.845Z,5.20
2023-02-25T14:43:57.396Z,6.90
2023-02-25T14:46:31.356Z,7.20
2023-02-25T14:49:21.098Z,5.10
2023-02-25T14:52:01.575Z,9.40
2023-02-25T14:54:38.654Z,7.60
2023-02-25T14:57:21.798Z,5.30
2023-02-25T15:00:25.627Z,4.90
2023-02-25T15:03:02.828Z,7.90
2023-02-25T15:06:04.892Z,5.00
2023-02-25T15:08:46.292Z,6.30
2023-02-25T15:11:39.143Z,8.90
2023-02-25T15:14:21.792Z,6.40
2023-02-25T15:16:52.785Z,5.00
2023-02-25T15:19:27.641Z,4.40
2023-02-25T15:22:11.915Z,7.00
2023-02-25T15:24:40.869Z,5.30
2023-02-25T15:27:48.603Z,5.70
2023-02-25T15:30:23.517Z,5.10
2023-02-25T15:32:59.552Z,6.70
2023-02-25T15:35:36.535Z,6.80
2023-02-25T15:38:40.206Z,5.70
2023-02-25T15:41:26.807Z,3.40
2023-02-25T15:44:00.320Z,4.00
2023-02-25T15:46:34.835Z,3.20
2023-02-25T15:49:22.108Z,3.60
2023-02-25T15:51:51.600Z,7.80
2023-02-25T15:54:28.969Z,8.50
2023-02-25T15:57:01.420Z,3.50
2023-02-25T15:59:44.109Z,6.20
2023-02-25T16:02:30.578Z,9.20
2023-02-25T16:04:59.249Z,15.70
2023-02-25T16:07:39.291Z,6.10
2023-02-25T16:10:15.869Z,8.10
2023-02-25T16:12:46.240Z,21.70
2023-02-25T16:15:26.450Z,7.50
2023-02-25T16:17:56.591Z,7.60
2023-02-25T16:20:28.497Z,5.60
2023-02-25T16:22:57.757Z,4.10
2023-02-25T16:25:42.649Z,3.80
2023-02-25T16:28:26.805Z,2.20
2023-02-25T16:31:14.847Z,3.40
2023-02-25T16:33:53.279Z,5.00
2023-02-25T16:36:30.318Z,12.50
2023-02-25T16:39:12.684Z,13.40
2023-02-25T16:41:43.133Z,13.80
2023-02-25T16:44:18.430Z,6.70
2023-02-25T16:46:49.884Z,9.50
2023-02-25T16:49:21.282Z,6.90
2023-02-25T16:51:49.452Z,6.00
2023-02-25T16:54:21.016Z,3.40
2023-02-25T16:56:52.681Z,4.00
2023-02-25T16:59:21.814Z,3.60
2023-02-25T17:01:59.244Z,5.40
2023-02-25T17:07:20.162Z,4.30
2023-02-25T17:09:55.424Z,3.70
2023-02-25T17:12:41.397Z,14.40
2023-02-25T17:15:29.223Z,9.50
2023-02-25T17:18:26.876Z,6.40
2023-02-25T17:21:03.911Z,4.60
2023-02-25T17:23:38.797Z,4.60
2023-02-25T17:26:06.876Z,7.00
2023-02-25T17:28:36.965Z,5.00
2023-02-25T17:31:14.203Z,5.10
2023-02-25T17:34:00.905Z,4.60
2023-02-25T17:39:06.483Z,7.10
2023-02-25T17:41:35.768Z,5.80
2023-02-25T17:44:04.350Z,6.10
2023-02-25T17:46:39.475Z,6.00
2023-02-25T17:49:21.749Z,6.70
2023-02-25T17:52:17.077Z,6.20
2023-02-25T17:54:47.170Z,6.60
2023-02-25T17:57:17.673Z,10.70
2023-02-25T18:00:04.357Z,7.10
2023-02-25T18:02:40.426Z,10.60
2023-02-25T18:05:12.648Z,4.90
2023-02-25T18:07:43.423Z,7.70
2023-02-25T18:10:44.939Z,6.20
2023-02-25T18:13:29.282Z,6.20
2023-02-25T18:16:22.411Z,6.60
2023-02-25T18:18:51.940Z,6.30
2023-02-25T18:21:20.415Z,5.10
2023-02-25T18:23:48.782Z,7.10
2023-02-25T18:26:22.244Z,6.90
2023-02-25T18:28:51.617Z,4.50
2023-02-25T18:31:22.653Z,5.70
2023-02-25T18:33:50.966Z,4.70
2023-02-25T18:36:26.778Z,4.80
2023-02-25T18:38:57.784Z,6.30
2023-02-25T18:41:26.681Z,4.90
2023-02-25T18:43:54.794Z,5.10
2023-02-25T18:46:23.781Z,5.50
2023-02-25T18:48:52.325Z,6.00
2023-02-25T18:51:20.754Z,6.30
2023-02-25T18:53:50.744Z,5.20
2023-02-25T18:56:18.909Z,6.60
2023-02-25T18:58:47.251Z,5.70
2023-02-25T19:01:24.061Z,6.30
2023-02-25T19:03:53.952Z,6.10
2023-02-25T19:06:22.243Z,6.50
2023-02-25T19:08:50.540Z,8.60
2023-02-25T19:11:24.354Z,7.40
2023-02-25T19:13:53.205Z,6.80
2023-02-25T19:16:23.498Z,6.90
2023-02-25T19:18:51.891Z,8.50
2023-02-25T19:21:20.918Z,7.50
2023-02-25T19:23:53.945Z,7.60
2023-02-25T19:26:22.457Z,7.40
2023-02-25T19:28:51.267Z,9.30
2023-02-25T19:31:19.459Z,7.80
2023-02-25T19:33:47.674Z,6.60
2023-02-25T19:36:15.798Z,8.40
2023-02-25T19:38:43.817Z,7.10
2023-02-25T19:41:14.479Z,7.10
2023-02-25T19:43:42.710Z,6.90
2023-02-25T19:46:10.822Z,8.40
2023-02-25T19:48:38.931Z,9.80
2023-02-25T19:51:08.191Z,9.30
2023-02-25T19:53:36.615Z,8.10
2023-02-25T19:56:08.101Z,11.90
2023-02-25T19:58:36.641Z,8.80
2023-02-25T20:01:05.946Z,9.40
2023-02-25T20:03:35.767Z,9.50
2023-02-25T20:06:12.943Z,9.40
2023-02-25T20:08:43.083Z,9.60
2023-02-25T20:11:11.319Z,7.70
2023-02-25T20:13:39.436Z,9.00
2023-02-25T20:16:09.541Z,8.50
2023-02-25T20:18:37.739Z,9.00
2023-02-25T20:21:06.150Z,9.20
2023-02-25T20:23:35.090Z,8.40
2023-02-25T20:26:08.416Z,8.40
2023-02-25T20:28:36.858Z,10.70
2023-02-25T20:31:11.516Z,10.60
2023-02-25T20:33:39.971Z,10.60
2023-02-25T20:36:23.342Z,9.60
2023-02-25T20:39:12.982Z,9.30
2023-02-25T20:41:44.781Z,9.00
2023-02-25T20:44:13.286Z,9.40
2023-02-25T20:46:44.404Z,9.20
2023-02-25T20:49:14.708Z,8.60
2023-02-25T20:51:44.944Z,10.00
2023-02-25T20:54:14.145Z,8.40
2023-02-25T20:56:50.788Z,8.80
2023-02-25T20:59:19.416Z,8.30
2023-02-25T21:01:47.480Z,8.30
2023-02-25T21:04:15.741Z,8.90
2023-02-25T21:06:44.334Z,11.40
2023-02-25T21:09:16.939Z,8.80
2023-02-25T21:11:45.299Z,8.60
2023-02-25T21:14:13.371Z,10.40
2023-02-25T21:16:41.749Z,9.40
2023-02-25T21:19:10.112Z,10.30
2023-02-25T21:21:38.241Z,10.00
2023-02-25T21:24:07.742Z,9.00
2023-02-25T21:26:39.491Z,8.30
2023-02-25T21:29:08.157Z,8.70
2023-02-25T21:31:37.435Z,7.40
2023-02-25T21:34:06.710Z,9.50
2023-02-25T21:36:35.942Z,9.00
2023-02-25T21:39:04.228Z,9.90
2023-02-25T21:41:32.375Z,8.10
2023-02-25T21:44:04.054Z,8.10
2023-02-25T21:46:32.444Z,8.30
2023-02-25T21:49:00.648Z,10.50
2023-02-25T21:51:29.119Z,11.00
2023-02-25T21:53:59.011Z,8.80
2023-02-25T21:56:27.735Z,8.00
2023-02-25T21:58:57.034Z,8.90
2023-02-25T22:01:28.435Z,9.90
2023-02-25T22:03:56.709Z,9.10
2023-02-25T22:06:26.220Z,9.30
2023-02-25T22:08:55.501Z,9.50
2023-02-25T22:11:26.311Z,10.70
2023-02-25T22:14:01.276Z,10.20
2023-02-25T22:16:29.803Z,9.60
2023-02-25T22:18:58.883Z,8.60
2023-02-25T22:21:29.711Z,9.80
2023-02-25T22:23:59.125Z,10.10
2023-02-25T22:26:32.017Z,9.30
2023-02-25T22:29:05.155Z,8.50
2023-02-25T22:31:34.417Z,9.30
2023-02-25T22:34:03.062Z,10.60
2023-02-25T22:36:31.159Z,10.30
2023-02-25T22:39:00.002Z,10.30
2023-02-25T22:41:29.284Z,9.90
2023-02-25T22:43:58.125Z,9.40
2023-02-25T22:46:28.399Z,11.10
2023-02-25T22:48:56.704Z,8.40
2023-02-25T22:51:26.221Z,11.30
2023-02-25T22:53:54.415Z,9.00
2023-02-25T22:56:22.888Z,11.30
2023-02-25T22:58:51.424Z,10.30
2023-02-25T23:01:21.126Z,12.50
2023-02-25T23:03:51.611Z,12.40
2023-02-25T23:06:34.227Z,11.00
2023-02-25T23:09:10.847Z,13.20
2023-02-25T23:11:42.837Z,9.20
2023-02-25T23:14:11.898Z,10.50
2023-02-25T23:16:41.726Z,10.00
2023-02-25T23:19:16.012Z,9.90
2023-02-25T23:21:46.316Z,12.00
2023-02-25T23:24:16.529Z,9.00
2023-02-25T23:26:45.314Z,11.20
2023-02-25T23:29:13.813Z,9.40
2023-02-25T23:31:44.634Z,9.30
2023-02-25T23:34:15.093Z,9.10
2023-02-25T23:36:43.814Z,8.50
2023-02-25T23:39:12.769Z,9.00
2023-02-25T23:41:40.924Z,10.40
2023-02-25T23:44:11.498Z,11.40
2023-02-25T23:46:39.751Z,8.40
2023-02-25T23:49:07.920Z,7.90
2023-02-25T23:51:36.373Z,7.50
2023-02-25T23:54:05.954Z,9.20
2023-02-25T23:56:34.311Z,8.70
2023-02-25T23:59:03.645Z,8.20
